Warner, Ohio
Current Conditions -  °F | °C
As of 9:53 AM on Wednesday 22 Oct 2014 (Local Time) from KPKB Reporting Station
Overcast Overcast  
Wind Chill: 47°   Ceiling: 1100
Heat Index: 49°   Visibility: 10mi
Dew Point: 44°   Wind: 6mph
Humidity: 83%   Direction: 350°N
Pressure: 30.21"   Gusts: NA
Location:  39.6083°N, 81.3498°W
Report Text: KPKB 221353Z 35005KT 10SM OVC011 09/07 A3021 RMK AO2 SLP232 T00940067
Loading
Personal Weather Stations






























Interactive Weather Map
Tropical Storm Tracking
New forecast layout! Learn more

10-Day Weather Forecast

Advertisements
Track Severe Weather on mobile